sensor_id;sensor_type;location;lat;lon;timestamp;P1;durP1;ratioP1;P2;durP2;ratioP2
17773;SDS011;9011;33.236;-97.118;2023-02-28T00:01:24;16.50;;;2.15;;
17773;SDS011;9011;33.236;-97.118;2023-02-28T00:03:53;17.48;;;2.15;;
17773;SDS011;9011;33.236;-97.118;2023-02-28T00:06:22;15.15;;;2.47;;
17773;SDS011;9011;33.236;-97.118;2023-02-28T00:08:51;8.80;;;2.22;;
17773;SDS011;9011;33.236;-97.118;2023-02-28T00:11:19;14.73;;;2.25;;
17773;SDS011;9011;33.236;-97.118;2023-02-28T00:13:47;20.05;;;3.15;;
17773;SDS011;9011;33.236;-97.118;2023-02-28T00:16:16;16.05;;;2.25;;
17773;SDS011;9011;33.236;-97.118;2023-02-28T00:18:47;12.75;;;2.80;;
17773;SDS011;9011;33.236;-97.118;2023-02-28T00:21:16;16.85;;;2.60;;
17773;SDS011;9011;33.236;-97.118;2023-02-28T00:23:45;27.17;;;3.03;;
17773;SDS011;9011;33.236;-97.118;2023-02-28T00:26:14;17.85;;;3.08;;
17773;SDS011;9011;33.236;-97.118;2023-02-28T00:28:42;26.95;;;3.30;;
17773;SDS011;9011;33.236;-97.118;2023-02-28T00:31:11;21.52;;;2.90;;
17773;SDS011;9011;33.236;-97.118;2023-02-28T00:33:39;15.32;;;3.45;;
17773;SDS011;9011;33.236;-97.118;2023-02-28T00:36:10;26.83;;;2.78;;
17773;SDS011;9011;33.236;-97.118;2023-02-28T00:38:39;18.30;;;2.40;;
17773;SDS011;9011;33.236;-97.118;2023-02-28T00:41:08;13.07;;;2.22;;
17773;SDS011;9011;33.236;-97.118;2023-02-28T00:43:37;13.82;;;2.35;;
17773;SDS011;9011;33.236;-97.118;2023-02-28T00:46:32;16.83;;;2.83;;
17773;SDS011;9011;33.236;-97.118;2023-02-28T00:49:19;35.60;;;3.78;;
17773;SDS011;9011;33.236;-97.118;2023-02-28T00:51:49;36.33;;;3.40;;
17773;SDS011;9011;33.236;-97.118;2023-02-28T00:54:18;18.58;;;2.25;;
17773;SDS011;9011;33.236;-97.118;2023-02-28T00:56:47;28.35;;;3.53;;
17773;SDS011;9011;33.236;-97.118;2023-02-28T00:59:16;12.35;;;2.70;;
17773;SDS011;9011;33.236;-97.118;2023-02-28T01:01:45;19.00;;;2.83;;
17773;SDS011;9011;33.236;-97.118;2023-02-28T01:04:14;14.55;;;2.13;;
17773;SDS011;9011;33.236;-97.118;2023-02-28T01:06:42;10.93;;;2.83;;
17773;SDS011;9011;33.236;-97.118;2023-02-28T01:09:12;11.15;;;2.05;;
17773;SDS011;9011;33.236;-97.118;2023-02-28T01:11:41;12.98;;;2.55;;
17773;SDS011;9011;33.236;-97.118;2023-02-28T01:14:11;20.85;;;2.53;;
17773;SDS011;9011;33.236;-97.118;2023-02-28T01:16:41;14.95;;;2.92;;
17773;SDS011;9011;33.236;-97.118;2023-02-28T01:19:09;15.60;;;1.90;;
17773;SDS011;9011;33.236;-97.118;2023-02-28T01:21:38;13.20;;;2.13;;
17773;SDS011;9011;33.236;-97.118;2023-02-28T01:24:07;9.93;;;2.33;;
17773;SDS011;9011;33.236;-97.118;2023-02-28T01:26:37;14.32;;;2.63;;
17773;SDS011;9011;33.236;-97.118;2023-02-28T01:29:05;18.58;;;2.92;;
17773;SDS011;9011;33.236;-97.118;2023-02-28T01:31:33;13.65;;;2.78;;
17773;SDS011;9011;33.236;-97.118;2023-02-28T01:34:02;17.65;;;3.45;;
17773;SDS011;9011;33.236;-97.118;2023-02-28T01:36:31;18.33;;;3.53;;
17773;SDS011;9011;33.236;-97.118;2023-02-28T01:39:02;18.77;;;3.65;;
17773;SDS011;9011;33.236;-97.118;2023-02-28T01:41:34;17.30;;;3.22;;
17773;SDS011;9011;33.236;-97.118;2023-02-28T01:44:04;15.13;;;3.58;;
17773;SDS011;9011;33.236;-97.118;2023-02-28T01:46:35;19.17;;;3.10;;
17773;SDS011;9011;33.236;-97.118;2023-02-28T01:49:05;15.70;;;3.13;;
17773;SDS011;9011;33.236;-97.118;2023-02-28T01:51:38;14.68;;;2.67;;
17773;SDS011;9011;33.236;-97.118;2023-02-28T01:54:12;16.58;;;3.10;;
17773;SDS011;9011;33.236;-97.118;2023-02-28T01:56:47;13.07;;;3.17;;
17773;SDS011;9011;33.236;-97.118;2023-02-28T01:59:23;22.80;;;3.20;;
17773;SDS011;9011;33.236;-97.118;2023-02-28T02:01:56;20.30;;;3.38;;
17773;SDS011;9011;33.236;-97.118;2023-02-28T02:04:26;24.08;;;3.83;;
17773;SDS011;9011;33.236;-97.118;2023-02-28T02:07:05;12.50;;;3.92;;
17773;SDS011;9011;33.236;-97.118;2023-02-28T02:09:56;13.85;;;2.63;;
17773;SDS011;9011;33.236;-97.118;2023-02-28T02:16:08;18.92;;;3.63;;
17773;SDS011;9011;33.236;-97.118;2023-02-28T02:19:15;12.27;;;2.88;;
17773;SDS011;9011;33.236;-97.118;2023-02-28T02:22:21;15.77;;;3.13;;
17773;SDS011;9011;33.236;-97.118;2023-02-28T02:25:16;13.40;;;3.00;;
17773;SDS011;9011;33.236;-97.118;2023-02-28T02:28:05;14.02;;;3.45;;
17773;SDS011;9011;33.236;-97.118;2023-02-28T02:31:06;17.60;;;3.47;;
17773;SDS011;9011;33.236;-97.118;2023-02-28T02:34:16;14.80;;;3.65;;
17773;SDS011;9011;33.236;-97.118;2023-02-28T02:37:07;18.35;;;2.90;;
17773;SDS011;9011;33.236;-97.118;2023-02-28T02:39:44;15.30;;;2.70;;
17773;SDS011;9011;33.236;-97.118;2023-02-28T02:42:20;17.33;;;3.15;;
17773;SDS011;9011;33.236;-97.118;2023-02-28T02:44:53;11.18;;;2.80;;
17773;SDS011;9011;33.236;-97.118;2023-02-28T02:47:27;19.77;;;3.55;;
17773;SDS011;9011;33.236;-97.118;2023-02-28T02:50:01;18.42;;;3.13;;
17773;SDS011;9011;33.236;-97.118;2023-02-28T02:52:34;14.82;;;3.15;;
17773;SDS011;9011;33.236;-97.118;2023-02-28T02:55:06;15.82;;;3.65;;
17773;SDS011;9011;33.236;-97.118;2023-02-28T02:57:39;35.22;;;5.30;;
17773;SDS011;9011;33.236;-97.118;2023-02-28T03:00:13;22.42;;;4.07;;
17773;SDS011;9011;33.236;-97.118;2023-02-28T03:02:45;12.50;;;2.80;;
17773;SDS011;9011;33.236;-97.118;2023-02-28T03:05:19;20.20;;;3.25;;
17773;SDS011;9011;33.236;-97.118;2023-02-28T03:07:50;17.52;;;2.65;;
17773;SDS011;9011;33.236;-97.118;2023-02-28T03:10:26;14.40;;;2.50;;
17773;SDS011;9011;33.236;-97.118;2023-02-28T03:13:00;16.85;;;3.20;;
17773;SDS011;9011;33.236;-97.118;2023-02-28T03:15:41;13.95;;;3.00;;
17773;SDS011;9011;33.236;-97.118;2023-02-28T03:18:22;12.65;;;3.67;;
17773;SDS011;9011;33.236;-97.118;2023-02-28T03:20:58;14.27;;;2.83;;
17773;SDS011;9011;33.236;-97.118;2023-02-28T03:23:33;10.88;;;2.63;;
17773;SDS011;9011;33.236;-97.118;2023-02-28T03:26:12;9.90;;;3.03;;
17773;SDS011;9011;33.236;-97.118;2023-02-28T03:28:49;13.00;;;3.08;;
17773;SDS011;9011;33.236;-97.118;2023-02-28T03:31:24;13.65;;;2.83;;
17773;SDS011;9011;33.236;-97.118;2023-02-28T03:33:58;10.82;;;3.03;;
17773;SDS011;9011;33.236;-97.118;2023-02-28T03:36:33;17.00;;;3.63;;
17773;SDS011;9011;33.236;-97.118;2023-02-28T03:39:09;12.38;;;2.53;;
17773;SDS011;9011;33.236;-97.118;2023-02-28T03:41:43;11.98;;;2.45;;
17773;SDS011;9011;33.236;-97.118;2023-02-28T03:44:16;10.93;;;2.45;;
17773;SDS011;9011;33.236;-97.118;2023-02-28T03:46:48;18.15;;;3.25;;
17773;SDS011;9011;33.236;-97.118;2023-02-28T03:49:21;15.93;;;3.45;;
17773;SDS011;9011;33.236;-97.118;2023-02-28T03:51:53;12.32;;;2.13;;
17773;SDS011;9011;33.236;-97.118;2023-02-28T03:54:27;14.38;;;3.10;;
17773;SDS011;9011;33.236;-97.118;2023-02-28T03:56:59;15.88;;;3.25;;
17773;SDS011;9011;33.236;-97.118;2023-02-28T03:59:32;9.02;;;2.67;;
17773;SDS011;9011;33.236;-97.118;2023-02-28T04:02:04;10.90;;;2.83;;
17773;SDS011;9011;33.236;-97.118;2023-02-28T04:04:33;12.70;;;2.80;;
17773;SDS011;9011;33.236;-97.118;2023-02-28T04:07:03;20.90;;;3.33;;
17773;SDS011;9011;33.236;-97.118;2023-02-28T04:09:36;21.17;;;2.80;;
17773;SDS011;9011;33.236;-97.118;2023-02-28T04:12:05;12.57;;;2.35;;
17773;SDS011;9011;33.236;-97.118;2023-02-28T04:14:33;13.07;;;2.05;;
17773;SDS011;9011;33.236;-97.118;2023-02-28T04:17:02;10.05;;;2.63;;
17773;SDS011;9011;33.236;-97.118;2023-02-28T04:19:30;16.75;;;2.95;;
17773;SDS011;9011;33.236;-97.118;2023-02-28T04:21:58;12.90;;;2.60;;
17773;SDS011;9011;33.236;-97.118;2023-02-28T04:24:28;10.48;;;2.20;;
17773;SDS011;9011;33.236;-97.118;2023-02-28T04:26:57;13.48;;;2.65;;
17773;SDS011;9011;33.236;-97.118;2023-02-28T04:29:26;11.10;;;2.15;;
17773;SDS011;9011;33.236;-97.118;2023-02-28T04:31:56;11.60;;;2.35;;
17773;SDS011;9011;33.236;-97.118;2023-02-28T04:34:25;10.05;;;2.42;;
17773;SDS011;9011;33.236;-97.118;2023-02-28T04:36:55;16.27;;;2.45;;
17773;SDS011;9011;33.236;-97.118;2023-02-28T04:39:25;18.42;;;3.13;;
17773;SDS011;9011;33.236;-97.118;2023-02-28T04:41:56;10.23;;;2.22;;
17773;SDS011;9011;33.236;-97.118;2023-02-28T04:44:24;10.52;;;1.90;;
17773;SDS011;9011;33.236;-97.118;2023-02-28T04:46:52;11.13;;;2.30;;
17773;SDS011;9011;33.236;-97.118;2023-02-28T04:49:21;10.27;;;2.55;;
17773;SDS011;9011;33.236;-97.118;2023-02-28T04:51:49;7.75;;;1.73;;
17773;SDS011;9011;33.236;-97.118;2023-02-28T04:54:18;12.88;;;2.25;;
17773;SDS011;9011;33.236;-97.118;2023-02-28T04:56:48;9.05;;;2.38;;
17773;SDS011;9011;33.236;-97.118;2023-02-28T04:59:17;8.73;;;2.40;;
17773;SDS011;9011;33.236;-97.118;2023-02-28T05:01:46;10.60;;;2.50;;
17773;SDS011;9011;33.236;-97.118;2023-02-28T05:04:15;6.75;;;1.73;;
17773;SDS011;9011;33.236;-97.118;2023-02-28T05:06:44;7.13;;;2.15;;
17773;SDS011;9011;33.236;-97.118;2023-02-28T05:09:12;14.63;;;3.53;;
17773;SDS011;9011;33.236;-97.118;2023-02-28T05:11:41;15.45;;;2.45;;
17773;SDS011;9011;33.236;-97.118;2023-02-28T05:14:12;11.30;;;2.40;;
17773;SDS011;9011;33.236;-97.118;2023-02-28T05:16:41;8.55;;;2.58;;
17773;SDS011;9011;33.236;-97.118;2023-02-28T05:19:09;9.13;;;2.08;;
17773;SDS011;9011;33.236;-97.118;2023-02-28T05:21:38;10.77;;;3.25;;
17773;SDS011;9011;33.236;-97.118;2023-02-28T05:24:09;11.05;;;2.08;;
17773;SDS011;9011;33.236;-97.118;2023-02-28T05:26:39;14.52;;;2.63;;
17773;SDS011;9011;33.236;-97.118;2023-02-28T05:29:09;9.98;;;2.50;;
17773;SDS011;9011;33.236;-97.118;2023-02-28T05:31:39;9.48;;;2.40;;
17773;SDS011;9011;33.236;-97.118;2023-02-28T05:34:08;15.30;;;2.17;;
17773;SDS011;9011;33.236;-97.118;2023-02-28T05:36:38;10.35;;;2.63;;
17773;SDS011;9011;33.236;-97.118;2023-02-28T05:39:06;7.38;;;2.35;;
17773;SDS011;9011;33.236;-97.118;2023-02-28T05:41:38;13.63;;;2.47;;
17773;SDS011;9011;33.236;-97.118;2023-02-28T05:44:08;7.15;;;1.90;;
17773;SDS011;9011;33.236;-97.118;2023-02-28T05:46:39;11.63;;;2.38;;
17773;SDS011;9011;33.236;-97.118;2023-02-28T05:49:07;9.90;;;2.38;;
17773;SDS011;9011;33.236;-97.118;2023-02-28T05:51:36;11.57;;;2.40;;
17773;SDS011;9011;33.236;-97.118;2023-02-28T05:54:05;9.40;;;2.38;;
17773;SDS011;9011;33.236;-97.118;2023-02-28T05:56:34;9.57;;;2.42;;
17773;SDS011;9011;33.236;-97.118;2023-02-28T05:59:04;10.15;;;2.10;;
17773;SDS011;9011;33.236;-97.118;2023-02-28T06:01:33;14.88;;;2.45;;
17773;SDS011;9011;33.236;-97.118;2023-02-28T06:04:05;5.88;;;1.90;;
17773;SDS011;9011;33.236;-97.118;2023-02-28T06:06:35;9.10;;;2.47;;
17773;SDS011;9011;33.236;-97.118;2023-02-28T06:09:04;11.55;;;2.58;;
17773;SDS011;9011;33.236;-97.118;2023-02-28T06:11:33;11.75;;;3.13;;
17773;SDS011;9011;33.236;-97.118;2023-02-28T06:14:02;9.40;;;1.98;;
17773;SDS011;9011;33.236;-97.118;2023-02-28T06:16:31;14.05;;;2.35;;
17773;SDS011;9011;33.236;-97.118;2023-02-28T06:19:01;10.60;;;2.20;;
17773;SDS011;9011;33.236;-97.118;2023-02-28T06:21:31;10.15;;;2.20;;
17773;SDS011;9011;33.236;-97.118;2023-02-28T06:24:00;10.93;;;1.80;;
17773;SDS011;9011;33.236;-97.118;2023-02-28T06:26:28;11.45;;;2.42;;
17773;SDS011;9011;33.236;-97.118;2023-02-28T06:28:57;12.23;;;2.60;;
17773;SDS011;9011;33.236;-97.118;2023-02-28T06:31:26;7.80;;;2.08;;
17773;SDS011;9011;33.236;-97.118;2023-02-28T06:33:55;9.52;;;2.45;;
17773;SDS011;9011;33.236;-97.118;2023-02-28T06:36:25;11.50;;;2.08;;
17773;SDS011;9011;33.236;-97.118;2023-02-28T06:38:53;11.27;;;2.20;;
17773;SDS011;9011;33.236;-97.118;2023-02-28T06:41:22;8.50;;;2.05;;
17773;SDS011;9011;33.236;-97.118;2023-02-28T06:43:52;11.35;;;2.50;;
17773;SDS011;9011;33.236;-97.118;2023-02-28T06:46:20;10.57;;;2.67;;
17773;SDS011;9011;33.236;-97.118;2023-02-28T06:48:49;8.90;;;2.30;;
17773;SDS011;9011;33.236;-97.118;2023-02-28T06:51:19;13.02;;;2.55;;
17773;SDS011;9011;33.236;-97.118;2023-02-28T06:53:49;11.73;;;2.20;;
17773;SDS011;9011;33.236;-97.118;2023-02-28T06:56:18;10.80;;;1.92;;
17773;SDS011;9011;33.236;-97.118;2023-02-28T06:58:47;10.18;;;2.47;;
17773;SDS011;9011;33.236;-97.118;2023-02-28T07:01:18;11.15;;;2.28;;
17773;SDS011;9011;33.236;-97.118;2023-02-28T07:03:48;10.73;;;2.67;;
17773;SDS011;9011;33.236;-97.118;2023-02-28T07:06:17;9.55;;;2.20;;
17773;SDS011;9011;33.236;-97.118;2023-02-28T07:08:49;9.82;;;2.97;;
17773;SDS011;9011;33.236;-97.118;2023-02-28T07:11:18;11.45;;;2.38;;
17773;SDS011;9011;33.236;-97.118;2023-02-28T07:13:48;8.27;;;2.20;;
17773;SDS011;9011;33.236;-97.118;2023-02-28T07:16:16;7.35;;;2.05;;
17773;SDS011;9011;33.236;-97.118;2023-02-28T07:18:45;12.02;;;2.40;;
17773;SDS011;9011;33.236;-97.118;2023-02-28T07:21:14;13.68;;;2.38;;
17773;SDS011;9011;33.236;-97.118;2023-02-28T07:23:43;10.15;;;1.77;;
17773;SDS011;9011;33.236;-97.118;2023-02-28T07:26:13;9.43;;;2.40;;
17773;SDS011;9011;33.236;-97.118;2023-02-28T07:28:42;8.82;;;2.58;;
17773;SDS011;9011;33.236;-97.118;2023-02-28T07:31:12;10.45;;;2.33;;
17773;SDS011;9011;33.236;-97.118;2023-02-28T07:33:41;6.57;;;1.55;;
17773;SDS011;9011;33.236;-97.118;2023-02-28T07:36:10;7.00;;;2.30;;
17773;SDS011;9011;33.236;-97.118;2023-02-28T07:38:44;13.97;;;2.50;;
17773;SDS011;9011;33.236;-97.118;2023-02-28T07:41:16;18.13;;;2.50;;
17773;SDS011;9011;33.236;-97.118;2023-02-28T07:43:46;7.72;;;2.88;;
17773;SDS011;9011;33.236;-97.118;2023-02-28T07:46:15;7.18;;;2.10;;
17773;SDS011;9011;33.236;-97.118;2023-02-28T07:48:45;9.97;;;2.50;;
17773;SDS011;9011;33.236;-97.118;2023-02-28T07:51:13;5.65;;;2.03;;
17773;SDS011;9011;33.236;-97.118;2023-02-28T07:53:42;10.97;;;2.37;;
17773;SDS011;9011;33.236;-97.118;2023-02-28T07:56:10;10.38;;;2.30;;
17773;SDS011;9011;33.236;-97.118;2023-02-28T07:58:40;12.13;;;2.45;;
17773;SDS011;9011;33.236;-97.118;2023-02-28T08:01:09;10.48;;;2.22;;
17773;SDS011;9011;33.236;-97.118;2023-02-28T08:03:39;11.65;;;2.55;;
17773;SDS011;9011;33.236;-97.118;2023-02-28T08:06:08;11.98;;;2.20;;
17773;SDS011;9011;33.236;-97.118;2023-02-28T08:08:44;6.93;;;2.00;;
17773;SDS011;9011;33.236;-97.118;2023-02-28T08:11:12;7.90;;;1.90;;
17773;SDS011;9011;33.236;-97.118;2023-02-28T08:13:43;9.55;;;2.15;;
17773;SDS011;9011;33.236;-97.118;2023-02-28T08:16:12;11.18;;;2.30;;
17773;SDS011;9011;33.236;-97.118;2023-02-28T08:18:47;12.98;;;2.25;;
17773;SDS011;9011;33.236;-97.118;2023-02-28T08:21:17;12.30;;;2.63;;
17773;SDS011;9011;33.236;-97.118;2023-02-28T08:23:46;8.07;;;2.17;;
17773;SDS011;9011;33.236;-97.118;2023-02-28T08:26:15;9.03;;;1.90;;
17773;SDS011;9011;33.236;-97.118;2023-02-28T08:28:45;6.97;;;2.10;;
17773;SDS011;9011;33.236;-97.118;2023-02-28T08:31:14;9.97;;;2.17;;
17773;SDS011;9011;33.236;-97.118;2023-02-28T08:33:43;9.77;;;2.60;;
17773;SDS011;9011;33.236;-97.118;2023-02-28T08:36:14;8.73;;;2.73;;
17773;SDS011;9011;33.236;-97.118;2023-02-28T08:38:42;12.10;;;3.27;;
17773;SDS011;9011;33.236;-97.118;2023-02-28T08:41:13;9.93;;;2.40;;
17773;SDS011;9011;33.236;-97.118;2023-02-28T08:43:42;7.70;;;2.10;;
17773;SDS011;9011;33.236;-97.118;2023-02-28T08:46:12;7.20;;;2.20;;
17773;SDS011;9011;33.236;-97.118;2023-02-28T08:48:41;8.05;;;2.50;;
17773;SDS011;9011;33.236;-97.118;2023-02-28T08:51:10;7.60;;;1.90;;
17773;SDS011;9011;33.236;-97.118;2023-02-28T08:53:41;4.13;;;1.90;;
17773;SDS011;9011;33.236;-97.118;2023-02-28T08:56:10;9.93;;;1.83;;
17773;SDS011;9011;33.236;-97.118;2023-02-28T08:58:40;12.50;;;2.03;;
17773;SDS011;9011;33.236;-97.118;2023-02-28T09:01:09;8.25;;;3.05;;
17773;SDS011;9011;33.236;-97.118;2023-02-28T09:03:40;9.17;;;2.63;;
17773;SDS011;9011;33.236;-97.118;2023-02-28T09:06:09;14.23;;;2.30;;
17773;SDS011;9011;33.236;-97.118;2023-02-28T09:08:40;8.20;;;1.80;;
17773;SDS011;9011;33.236;-97.118;2023-02-28T09:11:09;9.30;;;2.00;;
17773;SDS011;9011;33.236;-97.118;2023-02-28T09:13:38;9.13;;;2.07;;
17773;SDS011;9011;33.236;-97.118;2023-02-28T09:16:08;5.13;;;1.60;;
17773;SDS011;9011;33.236;-97.118;2023-02-28T09:18:39;7.37;;;1.90;;
17773;SDS011;9011;33.236;-97.118;2023-02-28T09:21:08;11.17;;;1.93;;
17773;SDS011;9011;33.236;-97.118;2023-02-28T09:23:39;6.10;;;1.70;;
17773;SDS011;9011;33.236;-97.118;2023-02-28T09:26:11;8.27;;;1.90;;
17773;SDS011;9011;33.236;-97.118;2023-02-28T09:28:41;5.87;;;1.67;;
17773;SDS011;9011;33.236;-97.118;2023-02-28T09:31:13;11.03;;;2.40;;
17773;SDS011;9011;33.236;-97.118;2023-02-28T09:33:48;11.70;;;3.37;;
17773;SDS011;9011;33.236;-97.118;2023-02-28T09:36:17;9.20;;;1.80;;
17773;SDS011;9011;33.236;-97.118;2023-02-28T09:38:47;6.33;;;1.40;;
17773;SDS011;9011;33.236;-97.118;2023-02-28T09:41:19;6.07;;;1.77;;
17773;SDS011;9011;33.236;-97.118;2023-02-28T09:43:50;9.80;;;1.90;;
17773;SDS011;9011;33.236;-97.118;2023-02-28T09:46:27;8.80;;;1.70;;
17773;SDS011;9011;33.236;-97.118;2023-02-28T09:49:02;9.13;;;1.90;;
17773;SDS011;9011;33.236;-97.118;2023-02-28T09:51:40;8.83;;;2.63;;
17773;SDS011;9011;33.236;-97.118;2023-02-28T09:54:16;8.17;;;1.60;;
17773;SDS011;9011;33.236;-97.118;2023-02-28T09:56:48;8.67;;;2.63;;
17773;SDS011;9011;33.236;-97.118;2023-02-28T09:59:25;6.53;;;1.90;;
17773;SDS011;9011;33.236;-97.118;2023-02-28T10:02:04;4.80;;;1.90;;
17773;SDS011;9011;33.236;-97.118;2023-02-28T10:04:54;5.13;;;1.77;;
17773;SDS011;9011;33.236;-97.118;2023-02-28T10:07:32;10.73;;;1.70;;
17773;SDS011;9011;33.236;-97.118;2023-02-28T10:10:14;4.53;;;1.27;;
17773;SDS011;9011;33.236;-97.118;2023-02-28T10:12:47;6.27;;;1.13;;
17773;SDS011;9011;33.236;-97.118;2023-02-28T10:15:21;7.03;;;1.30;;
17773;SDS011;9011;33.236;-97.118;2023-02-28T10:17:54;4.67;;;1.60;;
17773;SDS011;9011;33.236;-97.118;2023-02-28T10:20:27;9.47;;;2.10;;
17773;SDS011;9011;33.236;-97.118;2023-02-28T10:22:59;6.57;;;1.40;;
17773;SDS011;9011;33.236;-97.118;2023-02-28T10:25:36;4.80;;;1.37;;
17773;SDS011;9011;33.236;-97.118;2023-02-28T10:28:08;4.80;;;1.00;;
17773;SDS011;9011;33.236;-97.118;2023-02-28T10:30:39;1.50;;;0.80;;
17773;SDS011;9011;33.236;-97.118;2023-02-28T10:33:14;3.90;;;1.03;;
17773;SDS011;9011;33.236;-97.118;2023-02-28T10:35:49;5.60;;;1.07;;
17773;SDS011;9011;33.236;-97.118;2023-02-28T10:38:19;2.37;;;0.67;;
17773;SDS011;9011;33.236;-97.118;2023-02-28T10:40:49;3.63;;;0.80;;
17773;SDS011;9011;33.236;-97.118;2023-02-28T10:43:20;3.03;;;0.60;;
17773;SDS011;9011;33.236;-97.118;2023-02-28T10:45:53;2.53;;;0.60;;
17773;SDS011;9011;33.236;-97.118;2023-02-28T10:48:27;3.70;;;0.80;;
17773;SDS011;9011;33.236;-97.118;2023-02-28T10:51:01;2.93;;;1.03;;
17773;SDS011;9011;33.236;-97.118;2023-02-28T10:53:45;1.83;;;0.60;;
17773;SDS011;9011;33.236;-97.118;2023-02-28T10:56:17;2.73;;;0.70;;
17773;SDS011;9011;33.236;-97.118;2023-02-28T10:58:51;1.60;;;0.67;;
17773;SDS011;9011;33.236;-97.118;2023-02-28T11:01:22;2.43;;;0.43;;
17773;SDS011;9011;33.236;-97.118;2023-02-28T11:04:44;2.33;;;0.47;;
17773;SDS011;9011;33.236;-97.118;2023-02-28T11:14:35;3.23;;;0.60;;
17773;SDS011;9011;33.236;-97.118;2023-02-28T11:20:51;1.53;;;0.97;;
17773;SDS011;9011;33.236;-97.118;2023-02-28T11:23:51;2.27;;;0.70;;
17773;SDS011;9011;33.236;-97.118;2023-02-28T11:33:22;3.73;;;0.70;;
17773;SDS011;9011;33.236;-97.118;2023-02-28T12:19:09;1.33;;;0.50;;
17773;SDS011;9011;33.236;-97.118;2023-02-28T13:15:16;2.63;;;0.30;;
17773;SDS011;9011;33.236;-97.118;2023-02-28T14:11:51;3.95;;;1.08;;
17773;SDS011;9011;33.236;-97.118;2023-02-28T14:14:53;3.80;;;1.02;;
17773;SDS011;9011;33.236;-97.118;2023-02-28T14:17:41;1.63;;;0.70;;
17773;SDS011;9011;33.236;-97.118;2023-02-28T14:38:16;1.25;;;0.40;;
17773;SDS011;9011;33.236;-97.118;2023-02-28T15:17:20;2.00;;;0.50;;
17773;SDS011;9011;33.236;-97.118;2023-02-28T15:56:12;7.28;;;1.00;;
17773;SDS011;9011;33.236;-97.118;2023-02-28T15:58:50;2.10;;;0.70;;
17773;SDS011;9011;33.236;-97.118;2023-02-28T16:01:24;3.88;;;0.57;;
17773;SDS011;9011;33.236;-97.118;2023-02-28T16:03:59;1.38;;;0.40;;
17773;SDS011;9011;33.236;-97.118;2023-02-28T16:10:03;2.53;;;0.70;;
17773;SDS011;9011;33.236;-97.118;2023-02-28T16:13:51;0.50;;;0.40;;
17773;SDS011;9011;33.236;-97.118;2023-02-28T16:15:38;1.45;;;0.55;;
17773;SDS011;9011;33.236;-97.118;2023-02-28T16:18:24;1.08;;;0.40;;
17773;SDS011;9011;33.236;-97.118;2023-02-28T16:20:54;0.85;;;0.45;;
17773;SDS011;9011;33.236;-97.118;2023-02-28T16:23:22;1.73;;;0.60;;
17773;SDS011;9011;33.236;-97.118;2023-02-28T16:25:51;1.60;;;0.52;;
17773;SDS011;9011;33.236;-97.118;2023-02-28T16:28:20;3.10;;;0.60;;
17773;SDS011;9011;33.236;-97.118;2023-02-28T16:30:51;1.65;;;0.63;;
17773;SDS011;9011;33.236;-97.118;2023-02-28T16:33:20;1.13;;;0.40;;
17773;SDS011;9011;33.236;-97.118;2023-02-28T16:35:48;0.55;;;0.20;;
17773;SDS011;9011;33.236;-97.118;2023-02-28T16:38:18;2.33;;;0.47;;
17773;SDS011;9011;33.236;-97.118;2023-02-28T16:40:49;1.15;;;0.45;;
17773;SDS011;9011;33.236;-97.118;2023-02-28T16:43:20;0.88;;;0.52;;
17773;SDS011;9011;33.236;-97.118;2023-02-28T16:46:52;1.45;;;0.40;;
17773;SDS011;9011;33.236;-97.118;2023-02-28T16:49:23;2.45;;;0.30;;
17773;SDS011;9011;33.236;-97.118;2023-02-28T20:48:22;1.30;;;0.20;;
17773;SDS011;9011;33.236;-97.118;2023-02-28T21:41:27;1.50;;;0.40;;
17773;SDS011;9011;33.236;-97.118;2023-02-28T21:46:47;1.08;;;0.40;;
17773;SDS011;9011;33.236;-97.118;2023-02-28T21:49:35;1.17;;;0.47;;
17773;SDS011;9011;33.236;-97.118;2023-02-28T21:52:29;0.38;;;0.10;;
17773;SDS011;9011;33.236;-97.118;2023-02-28T21:55:00;2.63;;;0.70;;
17773;SDS011;9011;33.236;-97.118;2023-02-28T21:57:34;2.20;;;0.40;;
17773;SDS011;9011;33.236;-97.118;2023-02-28T22:00:06;1.42;;;0.30;;
17773;SDS011;9011;33.236;-97.118;2023-02-28T22:02:36;1.05;;;0.20;;
17773;SDS011;9011;33.236;-97.118;2023-02-28T22:05:08;1.23;;;0.50;;
17773;SDS011;9011;33.236;-97.118;2023-02-28T22:07:36;1.75;;;0.40;;
17773;SDS011;9011;33.236;-97.118;2023-02-28T22:10:12;1.55;;;0.35;;
17773;SDS011;9011;33.236;-97.118;2023-02-28T22:12:42;0.32;;;0.10;;
17773;SDS011;9011;33.236;-97.118;2023-02-28T22:15:10;2.10;;;0.40;;
17773;SDS011;9011;33.236;-97.118;2023-02-28T22:17:39;0.68;;;0.20;;
17773;SDS011;9011;33.236;-97.118;2023-02-28T22:20:08;1.40;;;0.22;;
17773;SDS011;9011;33.236;-97.118;2023-02-28T22:22:38;0.98;;;0.20;;
17773;SDS011;9011;33.236;-97.118;2023-02-28T22:25:21;2.70;;;0.30;;
17773;SDS011;9011;33.236;-97.118;2023-02-28T22:34:18;3.67;;;0.38;;
17773;SDS011;9011;33.236;-97.118;2023-02-28T22:36:56;1.55;;;0.30;;
17773;SDS011;9011;33.236;-97.118;2023-02-28T22:39:27;1.65;;;0.57;;
17773;SDS011;9011;33.236;-97.118;2023-02-28T22:41:56;1.50;;;0.20;;
17773;SDS011;9011;33.236;-97.118;2023-02-28T22:44:24;1.67;;;0.55;;
17773;SDS011;9011;33.236;-97.118;2023-02-28T22:46:58;5.80;;;1.17;;
17773;SDS011;9011;33.236;-97.118;2023-02-28T22:49:39;1.60;;;0.47;;
17773;SDS011;9011;33.236;-97.118;2023-02-28T22:52:08;2.45;;;0.40;;
17773;SDS011;9011;33.236;-97.118;2023-02-28T22:54:56;0.93;;;0.35;;
17773;SDS011;9011;33.236;-97.118;2023-02-28T22:57:38;5.85;;;0.68;;
17773;SDS011;9011;33.236;-97.118;2023-02-28T23:00:11;1.73;;;0.40;;
17773;SDS011;9011;33.236;-97.118;2023-02-28T23:05:34;2.65;;;0.45;;
17773;SDS011;9011;33.236;-97.118;2023-02-28T23:08:03;1.08;;;0.40;;
17773;SDS011;9011;33.236;-97.118;2023-02-28T23:10:49;0.50;;;0.20;;
17773;SDS011;9011;33.236;-97.118;2023-02-28T23:13:21;0.70;;;0.30;;
17773;SDS011;9011;33.236;-97.118;2023-02-28T23:15:55;2.28;;;0.30;;
17773;SDS011;9011;33.236;-97.118;2023-02-28T23:18:26;1.15;;;0.40;;
17773;SDS011;9011;33.236;-97.118;2023-02-28T23:20:55;1.50;;;0.60;;
17773;SDS011;9011;33.236;-97.118;2023-02-28T23:23:23;1.77;;;0.38;;
17773;SDS011;9011;33.236;-97.118;2023-02-28T23:25:52;1.65;;;0.50;;
17773;SDS011;9011;33.236;-97.118;2023-02-28T23:28:21;3.95;;;0.57;;
17773;SDS011;9011;33.236;-97.118;2023-02-28T23:30:49;1.40;;;0.47;;
17773;SDS011;9011;33.236;-97.118;2023-02-28T23:33:20;1.30;;;0.30;;
17773;SDS011;9011;33.236;-97.118;2023-02-28T23:35:52;0.95;;;0.40;;
17773;SDS011;9011;33.236;-97.118;2023-02-28T23:41:47;2.25;;;0.45;;
17773;SDS011;9011;33.236;-97.118;2023-02-28T23:44:15;1.63;;;0.40;;
17773;SDS011;9011;33.236;-97.118;2023-02-28T23:50:03;2.10;;;0.45;;
17773;SDS011;9011;33.236;-97.118;2023-02-28T23:52:33;9.20;;;0.77;;
17773;SDS011;9011;33.236;-97.118;2023-02-28T23:55:02;4.20;;;1.10;;
17773;SDS011;9011;33.236;-97.118;2023-02-28T23:57:30;10.13;;;1.20;;
